sensor_id;sensor_type;location;lat;lon;timestamp;P1;durP1;ratioP1;P2;durP2;ratioP2
44366;SDS011;30086;57.660;12.000;2023-03-01T01:57:36;15.52;;;5.32;;
44366;SDS011;30086;57.660;12.000;2023-03-01T02:00:09;10.57;;;5.00;;
44366;SDS011;30086;57.660;12.000;2023-03-01T02:02:57;11.15;;;5.63;;
44366;SDS011;30086;57.660;12.000;2023-03-01T02:07:56;7.90;;;4.88;;
44366;SDS011;30086;57.660;12.000;2023-03-01T02:10:31;10.60;;;5.68;;
44366;SDS011;30086;57.660;12.000;2023-03-01T02:13:00;9.73;;;5.25;;
44366;SDS011;30086;57.660;12.000;2023-03-01T02:15:47;10.30;;;5.18;;
44366;SDS011;30086;57.660;12.000;2023-03-01T02:18:17;7.72;;;4.57;;
44366;SDS011;30086;57.660;12.000;2023-03-01T02:21:12;10.55;;;5.45;;
44366;SDS011;30086;57.660;12.000;2023-03-01T02:24:29;9.20;;;4.75;;
44366;SDS011;30086;57.660;12.000;2023-03-01T02:27:01;12.50;;;5.20;;
44366;SDS011;30086;57.660;12.000;2023-03-01T02:29:51;12.10;;;5.13;;
44366;SDS011;30086;57.660;12.000;2023-03-01T02:32:22;11.25;;;4.60;;
44366;SDS011;30086;57.660;12.000;2023-03-01T02:35:10;11.68;;;5.50;;
44366;SDS011;30086;57.660;12.000;2023-03-01T02:37:55;8.82;;;4.78;;
44366;SDS011;30086;57.660;12.000;2023-03-01T02:40:25;9.70;;;4.72;;
44366;SDS011;30086;57.660;12.000;2023-03-01T02:42:55;8.80;;;5.22;;
44366;SDS011;30086;57.660;12.000;2023-03-01T02:45:50;11.45;;;5.40;;
44366;SDS011;30086;57.660;12.000;2023-03-01T02:48:46;10.70;;;4.85;;
44366;SDS011;30086;57.660;12.000;2023-03-01T02:51:30;10.20;;;4.72;;
44366;SDS011;30086;57.660;12.000;2023-03-01T02:54:28;9.45;;;4.88;;
44366;SDS011;30086;57.660;12.000;2023-03-01T02:56:56;10.65;;;5.20;;
44366;SDS011;30086;57.660;12.000;2023-03-01T02:59:29;8.95;;;4.25;;
44366;SDS011;30086;57.660;12.000;2023-03-01T03:02:25;9.75;;;4.43;;
44366;SDS011;30086;57.660;12.000;2023-03-01T03:05:12;9.48;;;4.55;;
44366;SDS011;30086;57.660;12.000;2023-03-01T03:07:50;9.35;;;4.30;;
44366;SDS011;30086;57.660;12.000;2023-03-01T03:10:24;8.73;;;4.20;;
44366;SDS011;30086;57.660;12.000;2023-03-01T03:13:10;12.10;;;4.35;;
44366;SDS011;30086;57.660;12.000;2023-03-01T03:15:45;8.02;;;4.57;;
44366;SDS011;30086;57.660;12.000;2023-03-01T03:18:21;9.73;;;4.40;;
44366;SDS011;30086;57.660;12.000;2023-03-01T03:20:54;9.05;;;4.55;;
44366;SDS011;30086;57.660;12.000;2023-03-01T03:23:30;8.07;;;4.20;;
44366;SDS011;30086;57.660;12.000;2023-03-01T03:26:16;11.60;;;5.05;;
44366;SDS011;30086;57.660;12.000;2023-03-01T03:28:44;6.25;;;4.07;;
44366;SDS011;30086;57.660;12.000;2023-03-01T03:31:18;15.35;;;4.63;;
44366;SDS011;30086;57.660;12.000;2023-03-01T03:33:45;7.93;;;3.95;;
44366;SDS011;30086;57.660;12.000;2023-03-01T03:36:20;8.52;;;4.13;;
44366;SDS011;30086;57.660;12.000;2023-03-01T03:38:52;15.98;;;4.28;;
44366;SDS011;30086;57.660;12.000;2023-03-01T03:41:20;8.85;;;4.50;;
44366;SDS011;30086;57.660;12.000;2023-03-01T03:43:51;6.70;;;3.80;;
44366;SDS011;30086;57.660;12.000;2023-03-01T03:46:27;8.20;;;4.20;;
44366;SDS011;30086;57.660;12.000;2023-03-01T03:48:57;8.07;;;4.72;;
44366;SDS011;30086;57.660;12.000;2023-03-01T03:51:37;9.57;;;3.92;;
44366;SDS011;30086;57.660;12.000;2023-03-01T03:54:24;8.60;;;4.25;;
44366;SDS011;30086;57.660;12.000;2023-03-01T03:56:52;6.68;;;3.72;;
44366;SDS011;30086;57.660;12.000;2023-03-01T03:59:34;7.25;;;4.20;;
44366;SDS011;30086;57.660;12.000;2023-03-01T04:02:22;7.13;;;3.70;;
44366;SDS011;30086;57.660;12.000;2023-03-01T04:04:53;8.30;;;4.20;;
44366;SDS011;30086;57.660;12.000;2023-03-01T04:07:19;9.10;;;3.83;;
44366;SDS011;30086;57.660;12.000;2023-03-01T04:09:48;6.47;;;3.88;;
44366;SDS011;30086;57.660;12.000;2023-03-01T04:12:14;7.03;;;3.85;;
44366;SDS011;30086;57.660;12.000;2023-03-01T04:17:15;7.72;;;4.18;;
44366;SDS011;30086;57.660;12.000;2023-03-01T04:19:48;10.70;;;4.45;;
44366;SDS011;30086;57.660;12.000;2023-03-01T04:22:19;11.00;;;3.97;;
44366;SDS011;30086;57.660;12.000;2023-03-01T04:24:54;15.25;;;4.40;;
44366;SDS011;30086;57.660;12.000;2023-03-01T04:27:21;8.63;;;4.07;;
44366;SDS011;30086;57.660;12.000;2023-03-01T04:30:09;7.80;;;3.83;;
44366;SDS011;30086;57.660;12.000;2023-03-01T04:33:01;11.95;;;4.00;;
44366;SDS011;30086;57.660;12.000;2023-03-01T04:35:28;8.57;;;3.83;;
44366;SDS011;30086;57.660;12.000;2023-03-01T04:37:55;6.07;;;3.67;;
44366;SDS011;30086;57.660;12.000;2023-03-01T04:40:23;8.40;;;3.65;;
44366;SDS011;30086;57.660;12.000;2023-03-01T04:42:49;6.97;;;3.97;;
44366;SDS011;30086;57.660;12.000;2023-03-01T04:45:16;6.63;;;3.47;;
44366;SDS011;30086;57.660;12.000;2023-03-01T04:47:43;6.53;;;3.80;;
44366;SDS011;30086;57.660;12.000;2023-03-01T04:50:17;10.25;;;4.28;;
44366;SDS011;30086;57.660;12.000;2023-03-01T04:52:48;5.32;;;3.40;;
44366;SDS011;30086;57.660;12.000;2023-03-01T04:55:55;8.27;;;3.78;;
44366;SDS011;30086;57.660;12.000;2023-03-01T04:58:26;6.85;;;3.40;;
44366;SDS011;30086;57.660;12.000;2023-03-01T05:00:54;10.20;;;4.43;;
44366;SDS011;30086;57.660;12.000;2023-03-01T05:03:22;10.73;;;4.45;;
44366;SDS011;30086;57.660;12.000;2023-03-01T05:05:49;6.38;;;3.45;;
44366;SDS011;30086;57.660;12.000;2023-03-01T05:08:22;12.10;;;4.20;;
44366;SDS011;30086;57.660;12.000;2023-03-01T05:10:52;9.73;;;4.45;;
44366;SDS011;30086;57.660;12.000;2023-03-01T05:13:29;8.70;;;4.40;;
44366;SDS011;30086;57.660;12.000;2023-03-01T05:15:59;9.18;;;3.90;;
44366;SDS011;30086;57.660;12.000;2023-03-01T05:18:27;11.10;;;4.03;;
44366;SDS011;30086;57.660;12.000;2023-03-01T05:21:14;7.88;;;4.38;;
44366;SDS011;30086;57.660;12.000;2023-03-01T05:23:41;9.55;;;4.53;;
44366;SDS011;30086;57.660;12.000;2023-03-01T05:26:07;9.38;;;4.18;;
44366;SDS011;30086;57.660;12.000;2023-03-01T05:28:33;8.18;;;4.10;;
44366;SDS011;30086;57.660;12.000;2023-03-01T05:31:00;8.05;;;4.78;;
44366;SDS011;30086;57.660;12.000;2023-03-01T05:33:26;9.15;;;3.97;;
44366;SDS011;30086;57.660;12.000;2023-03-01T05:35:53;10.65;;;4.13;;
44366;SDS011;30086;57.660;12.000;2023-03-01T05:38:20;8.13;;;4.38;;
44366;SDS011;30086;57.660;12.000;2023-03-01T05:40:47;9.55;;;3.75;;
44366;SDS011;30086;57.660;12.000;2023-03-01T05:43:16;9.18;;;4.35;;
44366;SDS011;30086;57.660;12.000;2023-03-01T05:46:25;9.25;;;4.03;;
44366;SDS011;30086;57.660;12.000;2023-03-01T05:49:35;11.13;;;3.58;;
44366;SDS011;30086;57.660;12.000;2023-03-01T05:52:27;7.82;;;3.97;;
44366;SDS011;30086;57.660;12.000;2023-03-01T05:55:20;6.93;;;3.70;;
44366;SDS011;30086;57.660;12.000;2023-03-01T06:11:18;12.30;;;4.30;;
44366;SDS011;30086;57.660;12.000;2023-03-01T06:14:12;9.95;;;4.50;;
44366;SDS011;30086;57.660;12.000;2023-03-01T06:24:44;10.00;;;4.75;;
44366;SDS011;30086;57.660;12.000;2023-03-01T06:27:11;11.18;;;4.63;;
44366;SDS011;30086;57.660;12.000;2023-03-01T06:29:55;10.02;;;5.22;;
44366;SDS011;30086;57.660;12.000;2023-03-01T06:32:21;15.55;;;4.97;;
44366;SDS011;30086;57.660;12.000;2023-03-01T06:37:55;5.28;;;2.63;;
44366;SDS011;30086;57.660;12.000;2023-03-01T06:40:50;7.10;;;2.33;;
44366;SDS011;30086;57.660;12.000;2023-03-01T07:19:27;1.75;;;1.27;;
44366;SDS011;30086;57.660;12.000;2023-03-01T07:21:54;4.07;;;0.65;;
44366;SDS011;30086;57.660;12.000;2023-03-01T07:24:45;1.15;;;0.70;;
44366;SDS011;30086;57.660;12.000;2023-03-01T07:27:12;3.50;;;1.27;;
44366;SDS011;30086;57.660;12.000;2023-03-01T07:29:38;3.08;;;0.68;;
44366;SDS011;30086;57.660;12.000;2023-03-01T07:32:06;2.05;;;1.17;;
44366;SDS011;30086;57.660;12.000;2023-03-01T07:34:54;2.00;;;1.20;;
44366;SDS011;30086;57.660;12.000;2023-03-01T07:56:00;2.00;;;0.80;;
44366;SDS011;30086;57.660;12.000;2023-03-01T07:58:44;3.03;;;1.15;;
44366;SDS011;30086;57.660;12.000;2023-03-01T08:07:25;5.40;;;1.30;;
44366;SDS011;30086;57.660;12.000;2023-03-01T08:09:56;3.53;;;1.08;;
44366;SDS011;30086;57.660;12.000;2023-03-01T10:23:16;1.48;;;0.90;;
44366;SDS011;30086;57.660;12.000;2023-03-01T10:31:05;1.40;;;0.90;;
44366;SDS011;30086;57.660;12.000;2023-03-01T10:36:43;4.03;;;0.95;;
44366;SDS011;30086;57.660;12.000;2023-03-01T10:39:27;3.67;;;0.77;;
44366;SDS011;30086;57.660;12.000;2023-03-01T10:42:03;4.22;;;0.93;;
44366;SDS011;30086;57.660;12.000;2023-03-01T11:08:48;8.07;;;1.10;;
44366;SDS011;30086;57.660;12.000;2023-03-01T11:11:32;4.53;;;0.90;;
44366;SDS011;30086;57.660;12.000;2023-03-01T11:14:18;2.10;;;0.65;;
44366;SDS011;30086;57.660;12.000;2023-03-01T11:25:07;2.63;;;0.68;;
44366;SDS011;30086;57.660;12.000;2023-03-01T11:30:49;2.25;;;0.70;;
44366;SDS011;30086;57.660;12.000;2023-03-01T13:08:13;2.63;;;0.38;;
44366;SDS011;30086;57.660;12.000;2023-03-01T13:32:28;2.47;;;0.77;;
44366;SDS011;30086;57.660;12.000;2023-03-01T13:42:55;3.88;;;0.68;;
44366;SDS011;30086;57.660;12.000;2023-03-01T13:59:34;4.32;;;0.50;;
44366;SDS011;30086;57.660;12.000;2023-03-01T15:09:39;18.92;;;2.35;;
44366;SDS011;30086;57.660;12.000;2023-03-01T15:14:43;6.20;;;0.60;;
44366;SDS011;30086;57.660;12.000;2023-03-01T15:40:55;7.55;;;0.70;;
44366;SDS011;30086;57.660;12.000;2023-03-01T15:43:44;1.67;;;0.47;;
44366;SDS011;30086;57.660;12.000;2023-03-01T15:46:46;6.30;;;0.80;;
44366;SDS011;30086;57.660;12.000;2023-03-01T17:15:46;9.07;;;2.00;;
44366;SDS011;30086;57.660;12.000;2023-03-01T18:12:17;31.02;;;6.95;;
44366;SDS011;30086;57.660;12.000;2023-03-01T18:15:25;23.67;;;6.90;;
44366;SDS011;30086;57.660;12.000;2023-03-01T18:18:45;34.58;;;5.68;;
44366;SDS011;30086;57.660;12.000;2023-03-01T18:37:15;30.42;;;5.10;;
44366;SDS011;30086;57.660;12.000;2023-03-01T18:40:07;17.58;;;4.75;;
44366;SDS011;30086;57.660;12.000;2023-03-01T18:42:40;25.00;;;4.63;;
44366;SDS011;30086;57.660;12.000;2023-03-01T18:45:06;24.33;;;4.63;;
44366;SDS011;30086;57.660;12.000;2023-03-01T18:47:34;17.05;;;4.28;;
44366;SDS011;30086;57.660;12.000;2023-03-01T19:00:32;36.65;;;8.50;;
44366;SDS011;30086;57.660;12.000;2023-03-01T19:02:59;32.90;;;9.52;;
44366;SDS011;30086;57.660;12.000;2023-03-01T19:05:26;27.35;;;8.25;;
44366;SDS011;30086;57.660;12.000;2023-03-01T19:07:52;31.45;;;9.40;;
44366;SDS011;30086;57.660;12.000;2023-03-01T19:10:18;26.25;;;7.50;;
44366;SDS011;30086;57.660;12.000;2023-03-01T19:12:45;26.00;;;7.72;;
44366;SDS011;30086;57.660;12.000;2023-03-01T19:15:11;40.63;;;9.38;;
44366;SDS011;30086;57.660;12.000;2023-03-01T19:17:40;41.95;;;8.93;;
44366;SDS011;30086;57.660;12.000;2023-03-01T19:20:06;33.20;;;8.13;;
44366;SDS011;30086;57.660;12.000;2023-03-01T19:22:34;24.33;;;6.82;;
44366;SDS011;30086;57.660;12.000;2023-03-01T19:25:00;24.02;;;7.10;;
44366;SDS011;30086;57.660;12.000;2023-03-01T19:27:26;23.77;;;8.13;;
44366;SDS011;30086;57.660;12.000;2023-03-01T19:29:55;29.85;;;7.32;;
44366;SDS011;30086;57.660;12.000;2023-03-01T19:32:21;23.77;;;7.15;;
44366;SDS011;30086;57.660;12.000;2023-03-01T19:34:47;23.30;;;6.45;;
44366;SDS011;30086;57.660;12.000;2023-03-01T19:37:13;23.63;;;6.03;;
44366;SDS011;30086;57.660;12.000;2023-03-01T19:39:40;19.83;;;5.90;;
44366;SDS011;30086;57.660;12.000;2023-03-01T19:42:07;26.02;;;6.25;;
44366;SDS011;30086;57.660;12.000;2023-03-01T19:44:33;18.77;;;5.65;;
44366;SDS011;30086;57.660;12.000;2023-03-01T19:46:59;19.88;;;6.45;;
44366;SDS011;30086;57.660;12.000;2023-03-01T19:49:25;20.67;;;5.15;;
44366;SDS011;30086;57.660;12.000;2023-03-01T19:51:54;24.30;;;5.78;;
44366;SDS011;30086;57.660;12.000;2023-03-01T19:54:20;15.52;;;4.97;;
44366;SDS011;30086;57.660;12.000;2023-03-01T19:56:48;18.17;;;4.95;;
44366;SDS011;30086;57.660;12.000;2023-03-01T19:59:19;18.27;;;4.38;;
44366;SDS011;30086;57.660;12.000;2023-03-01T20:01:48;15.48;;;4.78;;
44366;SDS011;30086;57.660;12.000;2023-03-01T20:04:14;21.90;;;4.57;;
44366;SDS011;30086;57.660;12.000;2023-03-01T20:06:44;17.83;;;4.10;;
44366;SDS011;30086;57.660;12.000;2023-03-01T20:09:13;16.35;;;4.22;;
44366;SDS011;30086;57.660;12.000;2023-03-01T20:11:40;16.35;;;5.13;;
44366;SDS011;30086;57.660;12.000;2023-03-01T20:14:08;20.45;;;4.43;;
44366;SDS011;30086;57.660;12.000;2023-03-01T20:16:37;8.82;;;3.33;;
44366;SDS011;30086;57.660;12.000;2023-03-01T20:19:04;18.60;;;4.32;;
44366;SDS011;30086;57.660;12.000;2023-03-01T20:21:30;20.08;;;4.90;;
44366;SDS011;30086;57.660;12.000;2023-03-01T20:23:57;17.20;;;4.40;;
44366;SDS011;30086;57.660;12.000;2023-03-01T20:26:23;15.15;;;4.50;;
44366;SDS011;30086;57.660;12.000;2023-03-01T20:28:52;16.70;;;3.63;;
44366;SDS011;30086;57.660;12.000;2023-03-01T20:31:19;16.52;;;3.67;;
44366;SDS011;30086;57.660;12.000;2023-03-01T20:33:53;11.88;;;4.60;;
44366;SDS011;30086;57.660;12.000;2023-03-01T20:36:20;10.52;;;3.92;;
44366;SDS011;30086;57.660;12.000;2023-03-01T20:38:46;11.85;;;3.95;;
44366;SDS011;30086;57.660;12.000;2023-03-01T20:41:12;32.15;;;4.80;;
44366;SDS011;30086;57.660;12.000;2023-03-01T20:43:40;14.30;;;3.70;;
44366;SDS011;30086;57.660;12.000;2023-03-01T20:46:07;18.88;;;3.63;;
44366;SDS011;30086;57.660;12.000;2023-03-01T20:48:35;17.73;;;4.43;;
44366;SDS011;30086;57.660;12.000;2023-03-01T20:51:05;17.27;;;4.20;;
44366;SDS011;30086;57.660;12.000;2023-03-01T20:53:31;14.00;;;4.15;;
44366;SDS011;30086;57.660;12.000;2023-03-01T20:56:04;12.40;;;3.70;;
44366;SDS011;30086;57.660;12.000;2023-03-01T20:58:31;16.88;;;4.40;;
44366;SDS011;30086;57.660;12.000;2023-03-01T21:00:58;14.85;;;3.80;;
44366;SDS011;30086;57.660;12.000;2023-03-01T21:03:24;19.20;;;3.97;;
44366;SDS011;30086;57.660;12.000;2023-03-01T21:05:53;21.20;;;4.32;;
44366;SDS011;30086;57.660;12.000;2023-03-01T21:08:20;20.77;;;4.20;;
44366;SDS011;30086;57.660;12.000;2023-03-01T21:10:49;11.63;;;4.35;;
44366;SDS011;30086;57.660;12.000;2023-03-01T21:13:16;8.13;;;4.60;;
44366;SDS011;30086;57.660;12.000;2023-03-01T21:15:42;12.48;;;4.05;;
44366;SDS011;30086;57.660;12.000;2023-03-01T21:18:16;14.10;;;4.75;;
44366;SDS011;30086;57.660;12.000;2023-03-01T21:20:42;13.07;;;4.50;;
44366;SDS011;30086;57.660;12.000;2023-03-01T21:23:08;23.27;;;4.78;;
44366;SDS011;30086;57.660;12.000;2023-03-01T21:25:34;14.13;;;4.43;;
44366;SDS011;30086;57.660;12.000;2023-03-01T21:28:02;8.38;;;4.25;;
44366;SDS011;30086;57.660;12.000;2023-03-01T21:30:28;9.60;;;3.60;;
44366;SDS011;30086;57.660;12.000;2023-03-01T21:32:55;31.27;;;4.72;;
44366;SDS011;30086;57.660;12.000;2023-03-01T21:35:21;11.68;;;4.30;;
44366;SDS011;30086;57.660;12.000;2023-03-01T21:37:48;11.90;;;4.55;;
44366;SDS011;30086;57.660;12.000;2023-03-01T21:40:14;10.90;;;4.82;;
44366;SDS011;30086;57.660;12.000;2023-03-01T21:42:40;9.85;;;4.30;;
44366;SDS011;30086;57.660;12.000;2023-03-01T21:45:08;6.97;;;3.40;;
44366;SDS011;30086;57.660;12.000;2023-03-01T21:47:34;16.95;;;4.70;;
44366;SDS011;30086;57.660;12.000;2023-03-01T21:50:02;10.93;;;4.03;;
44366;SDS011;30086;57.660;12.000;2023-03-01T21:52:28;8.90;;;4.20;;
44366;SDS011;30086;57.660;12.000;2023-03-01T21:54:54;8.35;;;4.55;;
44366;SDS011;30086;57.660;12.000;2023-03-01T21:57:25;11.80;;;4.38;;
44366;SDS011;30086;57.660;12.000;2023-03-01T21:59:55;12.68;;;5.50;;
44366;SDS011;30086;57.660;12.000;2023-03-01T22:02:21;11.40;;;4.47;;
44366;SDS011;30086;57.660;12.000;2023-03-01T22:04:50;10.27;;;4.32;;
44366;SDS011;30086;57.660;12.000;2023-03-01T22:07:21;12.23;;;4.35;;
44366;SDS011;30086;57.660;12.000;2023-03-01T22:09:47;17.23;;;5.25;;
44366;SDS011;30086;57.660;12.000;2023-03-01T22:12:13;17.10;;;4.55;;
44366;SDS011;30086;57.660;12.000;2023-03-01T22:14:39;10.85;;;4.60;;
44366;SDS011;30086;57.660;12.000;2023-03-01T22:17:07;9.05;;;4.07;;
44366;SDS011;30086;57.660;12.000;2023-03-01T22:19:34;12.23;;;4.95;;
44366;SDS011;30086;57.660;12.000;2023-03-01T22:22:00;11.68;;;4.50;;
44366;SDS011;30086;57.660;12.000;2023-03-01T22:24:26;16.92;;;5.30;;
44366;SDS011;30086;57.660;12.000;2023-03-01T22:26:52;12.77;;;4.60;;
44366;SDS011;30086;57.660;12.000;2023-03-01T22:29:26;14.73;;;4.90;;
44366;SDS011;30086;57.660;12.000;2023-03-01T22:31:53;11.88;;;5.78;;
44366;SDS011;30086;57.660;12.000;2023-03-01T22:34:20;10.52;;;5.20;;
44366;SDS011;30086;57.660;12.000;2023-03-01T22:36:46;14.60;;;5.57;;
44366;SDS011;30086;57.660;12.000;2023-03-01T22:39:13;16.33;;;5.10;;
44366;SDS011;30086;57.660;12.000;2023-03-01T22:41:40;14.73;;;5.38;;
44366;SDS011;30086;57.660;12.000;2023-03-01T22:44:12;12.15;;;4.65;;
44366;SDS011;30086;57.660;12.000;2023-03-01T22:46:40;10.35;;;5.30;;
44366;SDS011;30086;57.660;12.000;2023-03-01T22:49:06;13.02;;;4.90;;
44366;SDS011;30086;57.660;12.000;2023-03-01T22:51:33;15.05;;;4.45;;
44366;SDS011;30086;57.660;12.000;2023-03-01T22:54:01;13.23;;;4.25;;
44366;SDS011;30086;57.660;12.000;2023-03-01T22:56:31;15.80;;;4.55;;
44366;SDS011;30086;57.660;12.000;2023-03-01T22:58:58;11.02;;;4.32;;
44366;SDS011;30086;57.660;12.000;2023-03-01T23:01:24;17.25;;;5.03;;
44366;SDS011;30086;57.660;12.000;2023-03-01T23:03:50;7.40;;;3.90;;
44366;SDS011;30086;57.660;12.000;2023-03-01T23:06:17;7.00;;;3.53;;
44366;SDS011;30086;57.660;12.000;2023-03-01T23:08:47;11.30;;;5.03;;
44366;SDS011;30086;57.660;12.000;2023-03-01T23:11:14;12.57;;;3.80;;
44366;SDS011;30086;57.660;12.000;2023-03-01T23:13:41;15.15;;;4.28;;
44366;SDS011;30086;57.660;12.000;2023-03-01T23:16:07;12.35;;;4.82;;
44366;SDS011;30086;57.660;12.000;2023-03-01T23:18:34;10.77;;;4.65;;
44366;SDS011;30086;57.660;12.000;2023-03-01T23:21:05;10.13;;;4.20;;
44366;SDS011;30086;57.660;12.000;2023-03-01T23:23:32;11.50;;;4.50;;
44366;SDS011;30086;57.660;12.000;2023-03-01T23:25:58;15.45;;;4.63;;
44366;SDS011;30086;57.660;12.000;2023-03-01T23:28:24;10.35;;;4.18;;
44366;SDS011;30086;57.660;12.000;2023-03-01T23:31:09;9.30;;;4.45;;
44366;SDS011;30086;57.660;12.000;2023-03-01T23:33:37;11.00;;;4.35;;
44366;SDS011;30086;57.660;12.000;2023-03-01T23:36:13;9.18;;;4.25;;
44366;SDS011;30086;57.660;12.000;2023-03-01T23:38:39;12.70;;;5.47;;
44366;SDS011;30086;57.660;12.000;2023-03-01T23:41:15;8.50;;;3.85;;
44366;SDS011;30086;57.660;12.000;2023-03-01T23:43:45;12.25;;;3.72;;
44366;SDS011;30086;57.660;12.000;2023-03-01T23:46:11;7.15;;;2.97;;
44366;SDS011;30086;57.660;12.000;2023-03-01T23:48:38;8.30;;;3.22;;
44366;SDS011;30086;57.660;12.000;2023-03-01T23:51:04;12.10;;;3.65;;
44366;SDS011;30086;57.660;12.000;2023-03-01T23:53:31;9.13;;;3.05;;
44366;SDS011;30086;57.660;12.000;2023-03-01T23:55:59;8.13;;;3.72;;
44366;SDS011;30086;57.660;12.000;2023-03-01T23:58:25;5.38;;;2.92;;
